createdAt,value
2018-02-22T00:01:49.282Z,101055.94
2018-02-22T00:04:16.745Z,101055.52
2018-02-22T00:06:44.170Z,101049.93
2018-02-22T00:09:11.589Z,101044.76
2018-02-22T00:11:39.010Z,101046.42
2018-02-22T00:14:06.442Z,101049.05
2018-02-22T00:16:33.849Z,101047.45
2018-02-22T00:19:01.266Z,101045.66
2018-02-22T00:21:28.698Z,101040.77
2018-02-22T00:23:56.117Z,101041.80
2018-02-22T00:26:23.554Z,101035.02
2018-02-22T00:28:50.969Z,101036.14
2018-02-22T00:31:18.394Z,101039.43
2018-02-22T00:33:45.838Z,101036.28
2018-02-22T00:36:13.298Z,101042.22
2018-02-22T00:38:40.723Z,101040.10
2018-02-22T00:41:08.145Z,101037.41
2018-02-22T00:43:35.567Z,101041.70
2018-02-22T00:46:02.984Z,101035.58
2018-02-22T00:48:30.414Z,101035.33
2018-02-22T00:50:57.830Z,101031.76
2018-02-22T00:53:25.254Z,101031.30
2018-02-22T00:55:52.698Z,101022.42
2018-02-22T00:58:20.115Z,101031.47
2018-02-22T01:00:47.540Z,101020.94
2018-02-22T01:03:14.953Z,101017.89
2018-02-22T01:05:42.379Z,101014.36
2018-02-22T01:08:09.798Z,101019.45
2018-02-22T01:10:37.218Z,101019.27
2018-02-22T01:13:04.641Z,101018.56
2018-02-22T01:15:32.066Z,101018.39
2018-02-22T01:17:59.485Z,101022.48
2018-02-22T01:20:26.901Z,101018.03
2018-02-22T01:22:54.324Z,101027.19
2018-02-22T01:25:21.755Z,101024.22
2018-02-22T01:27:49.187Z,101027.33
2018-02-22T01:30:16.604Z,101021.31
2018-02-22T01:32:44.015Z,101020.42
2018-02-22T01:35:11.451Z,101024.00
2018-02-22T01:37:38.870Z,101020.70
2018-02-22T01:40:06.281Z,101024.27
2018-02-22T01:42:33.711Z,101026.42
2018-02-22T01:45:01.139Z,101021.08
2018-02-22T01:47:28.558Z,101020.94
2018-02-22T01:49:55.973Z,101022.95
2018-02-22T01:52:23.421Z,101016.24
2018-02-22T01:54:50.843Z,101014.75
2018-02-22T01:57:18.265Z,101021.35
2018-02-22T01:59:45.692Z,101013.25
2018-02-22T02:02:13.109Z,101010.43
2018-02-22T02:04:40.574Z,101005.55
2018-02-22T02:07:07.994Z,101005.96
2018-02-22T02:09:35.417Z,101012.73
2018-02-22T02:12:02.885Z,101004.84
2018-02-22T02:14:30.299Z,101004.34
2018-02-22T02:16:57.726Z,100997.88
2018-02-22T02:19:25.168Z,101000.31
2018-02-22T02:21:52.595Z,100998.66
2018-02-22T02:24:20.015Z,100998.66
2018-02-22T02:26:47.805Z,100997.52
2018-02-22T02:29:15.218Z,100996.97
2018-02-22T02:31:42.642Z,100992.02
2018-02-22T02:34:10.067Z,100999.23
2018-02-22T02:36:37.491Z,100996.37
2018-02-22T02:39:04.924Z,100996.53
2018-02-22T02:41:32.334Z,100989.11
2018-02-22T02:43:59.767Z,100992.03
2018-02-22T02:46:27.196Z,100987.70
2018-02-22T02:48:54.626Z,100985.27
2018-02-22T02:51:22.058Z,100984.64
2018-02-22T02:53:49.476Z,100978.79
2018-02-22T02:56:16.910Z,100983.45
2018-02-22T02:58:44.414Z,100982.35
2018-02-22T03:01:11.831Z,100983.64
2018-02-22T03:03:39.255Z,100983.35
2018-02-22T03:06:06.675Z,100979.19
2018-02-22T03:08:34.102Z,100980.63
2018-02-22T03:11:01.522Z,100976.63
2018-02-22T03:13:28.940Z,100976.17
2018-02-22T03:15:56.361Z,100980.66
2018-02-22T03:18:23.778Z,100980.71
2018-02-22T03:20:51.217Z,100984.70
2018-02-22T03:23:18.643Z,100981.30
2018-02-22T03:25:46.061Z,100974.34
2018-02-22T03:28:13.486Z,100972.94
2018-02-22T03:30:40.911Z,100975.98
2018-02-22T03:33:08.609Z,100975.27
2018-02-22T03:35:36.041Z,100974.95
2018-02-22T03:38:03.454Z,100969.97
2018-02-22T03:40:30.873Z,100967.19
2018-02-22T03:42:58.293Z,100970.67
2018-02-22T03:45:25.727Z,100961.52
2018-02-22T03:47:53.156Z,100966.29
2018-02-22T03:50:20.589Z,100965.09
2018-02-22T03:52:48.006Z,100966.30
2018-02-22T03:55:15.427Z,100968.66
2018-02-22T03:57:42.861Z,100962.59
2018-02-22T04:00:10.278Z,100962.23
2018-02-22T04:02:37.693Z,100969.61
2018-02-22T04:05:05.118Z,100968.77
2018-02-22T04:07:32.538Z,100970.50
2018-02-22T04:09:59.959Z,100977.81
2018-02-22T04:12:27.379Z,100970.03
2018-02-22T04:14:54.796Z,100971.97
2018-02-22T04:17:22.225Z,100966.11
2018-02-22T04:19:49.686Z,100971.88
2018-02-22T04:22:17.109Z,100977.73
2018-02-22T04:24:44.532Z,100976.33
2018-02-22T04:27:11.947Z,100976.44
2018-02-22T04:29:39.378Z,100983.75
2018-02-22T04:32:06.793Z,100983.47
2018-02-22T04:34:34.222Z,100984.53
2018-02-22T04:37:01.638Z,100980.78
2018-02-22T04:39:29.058Z,100988.38
2018-02-22T04:41:56.769Z,100987.09
2018-02-22T04:44:24.190Z,100982.91
2018-02-22T04:46:51.634Z,100984.00
2018-02-22T04:49:19.910Z,100983.29
2018-02-22T04:51:47.329Z,100980.80
2018-02-22T04:54:14.762Z,100983.16
2018-02-22T04:56:42.200Z,100987.08
2018-02-22T04:59:09.979Z,100987.75
2018-02-22T05:01:37.395Z,100988.92
2018-02-22T05:04:04.810Z,100987.38
2018-02-22T05:06:32.229Z,100988.75
2018-02-22T05:08:59.678Z,100989.48
2018-02-22T05:11:27.108Z,100987.94
2018-02-22T05:13:54.523Z,100983.42
2018-02-22T05:16:21.970Z,100989.94
2018-02-22T05:18:49.406Z,100985.72
2018-02-22T05:21:16.814Z,100987.20
2018-02-22T05:23:44.242Z,100982.05
2018-02-22T05:26:11.675Z,100984.06
2018-02-22T05:28:39.081Z,100978.41
2018-02-22T05:31:06.510Z,100983.53
2018-02-22T05:33:33.938Z,100980.75
2018-02-22T05:36:01.362Z,100987.56
2018-02-22T05:38:28.801Z,100981.52
2018-02-22T05:40:56.213Z,100984.77
2018-02-22T05:43:23.643Z,100978.05
2018-02-22T05:45:51.078Z,100985.08
2018-02-22T05:48:18.530Z,100985.69
2018-02-22T05:50:45.953Z,100990.59
2018-02-22T05:53:13.370Z,100986.86
2018-02-22T05:55:40.801Z,100992.34
2018-02-22T05:58:08.218Z,100988.30
2018-02-22T06:00:35.642Z,100990.44
2018-02-22T06:03:03.058Z,100994.70
2018-02-22T06:05:30.486Z,100998.70
2018-02-22T06:07:57.914Z,101002.14
2018-02-22T06:10:25.358Z,101001.12
2018-02-22T06:12:52.783Z,101001.36
2018-02-22T06:15:20.220Z,101009.15
2018-02-22T06:17:48.023Z,101012.80
2018-02-22T06:20:15.447Z,101003.69
2018-02-22T06:22:42.865Z,101009.87
2018-02-22T06:25:10.298Z,101002.10
2018-02-22T06:27:37.714Z,101007.09
2018-02-22T06:30:05.154Z,101009.53
2018-02-22T06:32:32.566Z,101005.72
2018-02-22T06:35:00.022Z,101007.88
2018-02-22T06:37:27.458Z,101012.81
2018-02-22T06:39:54.911Z,101014.66
2018-02-22T06:42:22.340Z,101012.61
2018-02-22T06:44:49.758Z,101017.27
2018-02-22T06:47:17.206Z,101013.98
2018-02-22T06:49:44.673Z,101017.50
2018-02-22T06:52:12.176Z,101015.83
2018-02-22T06:54:39.634Z,101028.50
2018-02-22T06:57:07.066Z,101023.80
2018-02-22T06:59:34.510Z,101028.33
2018-02-22T07:02:01.978Z,101026.48
2018-02-22T07:04:29.419Z,101030.48
2018-02-22T07:06:56.878Z,101029.34
2018-02-22T07:09:24.289Z,101032.42
2018-02-22T07:11:51.755Z,101032.07
2018-02-22T07:14:19.204Z,101034.73
2018-02-22T07:16:46.700Z,101029.63
2018-02-22T07:19:14.321Z,101033.20
2018-02-22T07:21:41.765Z,101030.02
2018-02-22T07:24:09.234Z,101024.36
2018-02-22T07:26:36.677Z,101029.38
2018-02-22T07:29:04.092Z,101024.11
2018-02-22T07:31:31.522Z,101025.07
2018-02-22T07:33:58.962Z,101027.05
2018-02-22T07:36:26.398Z,101030.48
2018-02-22T07:38:53.834Z,101027.61
2018-02-22T07:41:21.274Z,101035.88
2018-02-22T07:43:48.711Z,101035.77
2018-02-22T07:46:16.137Z,101035.27
2018-02-22T07:48:43.574Z,101037.12
2018-02-22T07:51:11.049Z,101042.41
2018-02-22T07:53:38.480Z,101044.17
2018-02-22T07:56:05.912Z,101042.50
2018-02-22T07:58:33.338Z,101048.27
2018-02-22T08:01:00.796Z,101048.25
2018-02-22T08:03:28.292Z,101040.86
2018-02-22T08:05:56.174Z,101043.42
2018-02-22T08:08:23.597Z,101050.07
2018-02-22T08:10:51.033Z,101046.66
2018-02-22T08:13:18.505Z,101051.48
2018-02-22T08:15:45.962Z,101048.03
2018-02-22T08:18:13.834Z,101050.98
2018-02-22T08:20:41.309Z,101051.13
2018-02-22T08:23:08.746Z,101054.78
2018-02-22T08:25:36.154Z,101050.05
2018-02-22T08:28:03.584Z,101041.94
2018-02-22T08:30:31.314Z,101041.28
2018-02-22T08:32:58.730Z,101049.21
2018-02-22T08:35:26.155Z,101052.07
2018-02-22T08:37:53.601Z,101040.81
2018-02-22T08:40:21.054Z,101050.86
2018-02-22T08:42:48.578Z,101051.95
2018-02-22T08:45:15.994Z,101046.39
2018-02-22T08:47:43.423Z,101048.06
2018-02-22T08:50:10.881Z,101053.62
2018-02-22T08:52:38.340Z,101050.49
2018-02-22T08:55:06.115Z,101046.73
2018-02-22T08:57:33.534Z,101048.53
2018-02-22T09:00:00.958Z,101038.31
2018-02-22T09:02:28.410Z,101038.84
2018-02-22T09:04:55.832Z,101034.70
2018-02-22T09:07:23.564Z,101033.80
2018-02-22T09:09:50.983Z,101043.58
2018-02-22T09:12:18.402Z,101044.06
2018-02-22T09:14:45.869Z,101046.05
2018-02-22T09:17:13.283Z,101045.18
2018-02-22T09:19:40.721Z,101042.75
2018-02-22T09:22:08.153Z,101037.73
2018-02-22T09:24:35.570Z,101036.22
2018-02-22T09:27:03.034Z,101040.30
2018-02-22T09:29:30.474Z,101039.77
2018-02-22T09:31:57.933Z,101042.91
2018-02-22T09:34:25.342Z,101041.55
2018-02-22T09:36:52.760Z,101046.61
2018-02-22T09:39:20.212Z,101041.13
2018-02-22T09:41:47.647Z,101042.52
2018-02-22T09:44:15.093Z,101042.21
2018-02-22T09:46:42.519Z,101048.19
2018-02-22T09:49:09.934Z,101043.17
2018-02-22T09:51:37.386Z,101039.14
2018-02-22T09:54:04.798Z,101042.27
2018-02-22T09:56:32.223Z,101039.89
2018-02-22T09:58:59.630Z,101032.02
2018-02-22T10:01:27.049Z,101043.39
2018-02-22T10:03:54.466Z,101034.22
2018-02-22T10:06:21.872Z,101034.80
2018-02-22T10:08:49.290Z,101040.27
2018-02-22T10:11:16.709Z,101039.92
2018-02-22T10:13:44.126Z,101037.59
2018-02-22T10:16:11.542Z,101041.45
2018-02-22T10:18:38.953Z,101038.00
2018-02-22T10:21:06.462Z,101030.18
2018-02-22T10:23:33.870Z,101032.12
2018-02-22T10:26:01.281Z,101023.05
2018-02-22T10:28:28.757Z,101023.23
2018-02-22T10:30:56.127Z,101024.22
2018-02-22T10:33:23.546Z,101023.58
2018-02-22T10:35:50.969Z,101022.23
2018-02-22T10:38:18.377Z,101014.00
2018-02-22T10:40:45.794Z,101015.09
2018-02-22T10:43:13.206Z,101014.33
2018-02-22T10:45:40.638Z,101014.13
2018-02-22T10:48:08.042Z,101010.23
2018-02-22T10:50:35.455Z,101011.77
2018-02-22T10:53:02.872Z,101012.12
2018-02-22T10:55:30.277Z,101013.93
2018-02-22T10:57:57.701Z,101011.05
2018-02-22T11:00:30.594Z,101003.90
2018-02-22T11:02:58.026Z,101002.25
2018-02-22T11:05:25.438Z,101007.32
2018-02-22T11:07:52.866Z,101012.52
2018-02-22T11:10:20.284Z,101006.08
2018-02-22T11:12:47.698Z,101000.66
2018-02-22T11:15:15.128Z,101002.06
2018-02-22T11:17:42.556Z,101002.87
2018-02-22T11:20:09.966Z,101006.83
2018-02-22T11:22:37.377Z,101001.47
2018-02-22T11:25:04.793Z,100999.59
2018-02-22T11:27:32.219Z,101003.00
2018-02-22T11:29:59.634Z,100990.36
2018-02-22T11:32:27.042Z,100991.89
2018-02-22T11:34:54.458Z,100994.34
2018-02-22T11:37:21.870Z,100986.37
2018-02-22T11:39:49.289Z,100973.88
2018-02-22T11:42:16.701Z,100959.33
2018-02-22T11:44:44.123Z,100967.27
2018-02-22T11:47:11.553Z,100966.44
2018-02-22T11:49:38.966Z,100959.98
2018-02-22T11:52:06.385Z,100960.17
2018-02-22T11:54:33.804Z,100952.34
2018-02-22T11:57:01.210Z,100949.34
2018-02-22T11:59:28.633Z,100958.69
2018-02-22T12:01:56.038Z,100955.20
2018-02-22T12:04:23.465Z,100950.16
2018-02-22T12:06:50.882Z,100948.80
2018-02-22T12:09:18.297Z,100942.11
2018-02-22T12:11:45.733Z,100944.25
2018-02-22T12:14:13.163Z,100940.82
2018-02-22T12:16:40.578Z,100936.62
2018-02-22T12:19:07.986Z,100936.33
2018-02-22T12:21:35.398Z,100931.13
2018-02-22T12:24:02.810Z,100931.39
2018-02-22T12:26:30.232Z,100930.57
2018-02-22T12:28:57.657Z,100929.68
2018-02-22T12:31:25.074Z,100922.14
2018-02-22T12:33:52.522Z,100926.85
2018-02-22T12:36:19.926Z,100916.61
2018-02-22T12:38:47.341Z,100921.95
2018-02-22T12:41:14.768Z,100920.95
2018-02-22T12:43:42.182Z,100913.70
2018-02-22T12:46:09.602Z,100909.88
2018-02-22T12:48:37.063Z,100909.44
2018-02-22T12:51:04.469Z,100907.34
2018-02-22T12:53:31.894Z,100907.06
2018-02-22T12:55:59.301Z,100903.84
2018-02-22T12:58:26.725Z,100902.68
2018-02-22T13:00:54.142Z,100899.36
2018-02-22T13:03:21.574Z,100889.66
2018-02-22T13:05:48.991Z,100884.84
2018-02-22T13:08:16.399Z,100882.17
2018-02-22T13:10:43.805Z,100886.07
2018-02-22T13:13:11.230Z,100879.83
2018-02-22T13:15:38.646Z,100881.77
2018-02-22T13:18:06.075Z,100871.73
2018-02-22T13:20:33.498Z,100872.48
2018-02-22T13:23:00.919Z,100867.98
2018-02-22T13:25:28.337Z,100859.98
2018-02-22T13:27:55.750Z,100860.77
2018-02-22T13:30:23.526Z,100857.41
2018-02-22T13:33:02.582Z,100855.41
2018-02-22T13:35:30.003Z,100850.53
2018-02-22T13:38:17.974Z,100858.13
2018-02-22T13:40:45.393Z,100844.52
2018-02-22T13:43:12.807Z,100847.92
2018-02-22T13:45:40.224Z,100841.66
2018-02-22T13:48:07.634Z,100829.61
2018-02-22T13:50:46.878Z,100831.01
2018-02-22T13:53:14.290Z,100834.39
2018-02-22T13:55:41.713Z,100817.46
2018-02-22T13:58:09.123Z,100822.12
2018-02-22T14:00:48.382Z,100825.94
2018-02-22T14:03:15.818Z,100818.67
2018-02-22T14:05:43.230Z,100814.44
2018-02-22T14:08:10.642Z,100817.91
2018-02-22T14:10:38.057Z,100812.78
2018-02-22T14:13:05.469Z,100820.63
2018-02-22T14:15:33.162Z,100819.41
2018-02-22T14:18:00.581Z,100805.02
2018-02-22T14:20:27.985Z,100804.81
2018-02-22T14:22:55.410Z,100793.88
2018-02-22T14:25:22.838Z,100803.38
2018-02-22T14:27:50.281Z,100797.70
2018-02-22T14:30:17.722Z,100802.67
2018-02-22T14:32:45.133Z,100799.47
2018-02-22T14:35:12.550Z,100801.69
2018-02-22T14:37:39.966Z,100795.31
2018-02-22T14:40:07.390Z,100792.34
2018-02-22T14:42:34.798Z,100793.84
2018-02-22T14:45:02.219Z,100789.97
2018-02-22T14:47:29.638Z,100795.06
2018-02-22T14:49:57.058Z,100785.68
2018-02-22T14:52:24.499Z,100782.94
2018-02-22T14:54:51.917Z,100787.22
2018-02-22T14:57:19.334Z,100778.23
2018-02-22T14:59:46.741Z,100783.16
2018-02-22T15:02:19.869Z,100783.17
2018-02-22T15:04:47.297Z,100795.98
2018-02-22T15:07:15.311Z,100786.66
2018-02-22T15:09:42.717Z,100785.24
2018-02-22T15:12:10.151Z,100788.95
2018-02-22T15:14:37.566Z,100782.30
2018-02-22T15:17:04.991Z,100787.28
2018-02-22T15:19:32.405Z,100780.84
2018-02-22T15:21:59.817Z,100795.66
2018-02-22T15:24:27.245Z,100785.87
2018-02-22T15:26:54.653Z,100778.88
2018-02-22T15:29:22.066Z,100779.45
2018-02-22T15:31:49.481Z,100788.70
2018-02-22T15:34:16.890Z,100782.95
2018-02-22T15:36:44.297Z,100787.80
2018-02-22T15:39:11.727Z,100777.89
2018-02-22T15:41:39.133Z,100785.30
2018-02-22T15:44:06.579Z,100786.20
2018-02-22T15:46:33.986Z,100786.56
2018-02-22T15:49:01.414Z,100780.30
2018-02-22T15:51:28.833Z,100790.36
2018-02-22T15:53:56.255Z,100780.92
2018-02-22T15:56:23.704Z,100795.25
2018-02-22T15:58:51.106Z,100787.08
2018-02-22T16:01:18.546Z,100791.38
2018-02-22T16:03:45.974Z,100794.81
2018-02-22T16:06:13.390Z,100792.08
2018-02-22T16:08:40.826Z,100796.81
2018-02-22T16:11:08.270Z,100804.20
2018-02-22T16:13:35.694Z,100798.77
2018-02-22T16:16:03.116Z,100808.41
2018-02-22T16:18:30.567Z,100794.48
2018-02-22T16:20:57.982Z,100797.68
2018-02-22T16:23:25.434Z,100804.84
2018-02-22T16:25:52.877Z,100812.84
2018-02-22T16:28:20.310Z,100809.16
2018-02-22T16:30:47.742Z,100811.69
2018-02-22T16:33:15.216Z,100819.98
2018-02-22T16:35:42.647Z,100823.27
2018-02-22T16:38:10.093Z,100814.48
2018-02-22T16:40:37.549Z,100816.42
2018-02-22T16:43:04.972Z,100814.13
2018-02-22T16:45:32.419Z,100807.60
2018-02-22T16:47:59.834Z,100825.73
2018-02-22T16:50:27.289Z,100817.41
2018-02-22T16:52:54.714Z,100827.08
2018-02-22T16:55:22.170Z,100818.67
2018-02-22T16:57:49.927Z,100826.83
2018-02-22T17:00:17.348Z,100822.05
2018-02-22T17:02:44.777Z,100824.68
2018-02-22T17:05:12.235Z,100829.10
2018-02-22T17:07:39.647Z,100831.52
2018-02-22T17:10:07.430Z,100834.95
2018-02-22T17:12:34.882Z,100834.97
2018-02-22T17:15:02.318Z,100833.54
2018-02-22T17:17:41.808Z,100840.60
2018-02-22T17:20:09.266Z,100840.02
2018-02-22T17:22:36.867Z,100846.60
2018-02-22T17:25:04.300Z,100839.67
2018-02-22T17:27:37.126Z,100846.64
2018-02-22T17:30:10.060Z,100845.80
2018-02-22T17:32:36.951Z,100851.95
2018-02-22T17:35:04.391Z,100850.90
2018-02-22T17:40:46.734Z,100857.66
2018-02-22T17:43:14.163Z,100860.33
2018-02-22T17:45:41.594Z,100864.23
2018-02-22T17:48:09.929Z,100860.50
2018-02-22T17:50:37.357Z,100868.68
2018-02-22T17:53:04.902Z,100869.31
2018-02-22T17:55:32.394Z,100873.36
2018-02-22T17:57:59.812Z,100865.34
2018-02-22T18:00:27.241Z,100866.12
2018-02-22T18:02:54.689Z,100873.12
2018-02-22T18:05:22.127Z,100867.94
2018-02-22T18:07:49.554Z,100871.19
2018-02-22T18:10:16.981Z,100871.89
2018-02-22T18:12:44.452Z,100870.16
2018-02-22T18:15:11.838Z,100877.08
2018-02-22T18:17:39.267Z,100872.73
2018-02-22T18:20:06.702Z,100879.36
2018-02-22T18:22:34.220Z,100884.54
2018-02-22T18:25:01.676Z,100884.96
2018-02-22T18:27:29.119Z,100894.22
2018-02-22T18:29:56.554Z,100893.60
2018-02-22T18:32:24.034Z,100897.40
2018-02-22T18:34:51.447Z,100900.65
2018-02-22T18:37:24.495Z,100902.58
2018-02-22T18:39:51.930Z,100900.23
2018-02-22T18:42:21.145Z,100912.75
2018-02-22T18:44:54.150Z,100911.23
2018-02-22T18:47:21.588Z,100907.53
2018-02-22T18:49:49.021Z,100911.27
2018-02-22T18:52:16.458Z,100903.80
2018-02-22T18:54:43.928Z,100919.04
2018-02-22T18:57:11.299Z,100912.28
2018-02-22T18:59:38.714Z,100915.30
2018-02-22T19:02:06.142Z,100916.84
2018-02-22T19:04:33.553Z,100918.70
2018-02-22T19:07:00.971Z,100915.20
2018-02-22T19:09:28.410Z,100921.23
2018-02-22T19:11:55.841Z,100922.00
2018-02-22T19:14:23.554Z,100918.30
2018-02-22T19:16:50.984Z,100921.00
2018-02-22T19:19:18.401Z,100924.31
2018-02-22T19:21:45.835Z,100924.13
2018-02-22T19:24:13.262Z,100927.80
2018-02-22T19:26:40.714Z,100925.61
2018-02-22T19:29:08.142Z,100932.20
2018-02-22T19:31:35.566Z,100916.61
2018-02-22T19:34:02.989Z,100922.67
2018-02-22T19:36:30.410Z,100922.52
2018-02-22T19:38:57.850Z,100923.49
2018-02-22T19:41:25.266Z,100922.52
2018-02-22T19:43:52.691Z,100915.00
2018-02-22T19:46:20.126Z,100920.37
2018-02-22T19:48:47.542Z,100922.26
2018-02-22T19:51:14.978Z,100919.25
2018-02-22T19:53:42.398Z,100913.85
2018-02-22T19:56:09.815Z,100919.83
2018-02-22T19:58:37.245Z,100925.61
2018-02-22T20:01:04.662Z,100917.17
2018-02-22T20:03:32.086Z,100921.45
2018-02-22T20:05:59.522Z,100921.68
2018-02-22T20:08:26.931Z,100926.23
2018-02-22T20:10:54.358Z,100928.23
2018-02-22T20:13:21.783Z,100924.89
2018-02-22T20:15:49.206Z,100931.64
2018-02-22T20:18:16.627Z,100937.26
2018-02-22T20:20:44.045Z,100932.91
2018-02-22T20:23:11.468Z,100934.64
2018-02-22T20:25:38.890Z,100938.11
2018-02-22T20:28:06.298Z,100934.38
2018-02-22T20:30:33.741Z,100934.22
2018-02-22T20:33:01.157Z,100927.51
2018-02-22T20:35:28.578Z,100932.66
2018-02-22T20:37:55.997Z,100930.88
2018-02-22T20:40:23.409Z,100933.50
2018-02-22T20:42:50.855Z,100933.53
2018-02-22T20:45:18.262Z,100932.38
2018-02-22T20:47:45.687Z,100936.36
2018-02-22T20:50:13.122Z,100933.53
2018-02-22T20:52:41.465Z,100940.54
2018-02-22T20:55:18.806Z,100940.94
2018-02-22T20:57:46.235Z,100945.98
2018-02-22T21:00:13.654Z,100945.94
2018-02-22T21:02:41.071Z,100949.48
2018-02-22T21:05:08.486Z,100954.02
2018-02-22T21:07:35.910Z,100953.16
2018-02-22T21:10:03.326Z,100949.67
2018-02-22T21:12:31.089Z,100950.45
2018-02-22T21:14:58.513Z,100951.72
2018-02-22T21:17:25.921Z,100948.06
2018-02-22T21:19:53.351Z,100951.85
2018-02-22T21:22:20.786Z,100948.19
2018-02-22T21:24:48.208Z,100942.33
2018-02-22T21:27:15.954Z,100940.06
2018-02-22T21:29:43.374Z,100944.97
2018-02-22T21:32:10.804Z,100937.12
2018-02-22T21:34:38.254Z,100938.25
2018-02-22T21:37:05.683Z,100943.84
2018-02-22T21:39:33.092Z,100942.33
2018-02-22T21:42:00.506Z,100949.72
2018-02-22T21:44:27.931Z,100950.56
2018-02-22T21:46:55.350Z,100953.55
2018-02-22T21:49:22.782Z,100953.83
2018-02-22T21:51:50.198Z,100948.70
2018-02-22T21:54:17.649Z,100946.69
2018-02-22T21:57:05.599Z,100943.79
2018-02-22T21:59:33.019Z,100949.77
2018-02-22T22:02:00.500Z,100942.06
2018-02-22T22:04:27.936Z,100946.03
2018-02-22T22:06:55.363Z,100943.74
2018-02-22T22:09:22.778Z,100942.86
2018-02-22T22:11:50.199Z,100939.11
2018-02-22T22:14:17.625Z,100944.48
2018-02-22T22:16:45.053Z,100946.05
2018-02-22T22:19:12.466Z,100940.88
2018-02-22T22:21:39.890Z,100949.20
2018-02-22T22:24:07.313Z,100945.59
2018-02-22T22:26:34.734Z,100936.89
2018-02-22T22:29:02.162Z,100931.06
2018-02-22T22:31:29.583Z,100936.45
2018-02-22T22:33:57.018Z,100939.49
2018-02-22T22:36:24.430Z,100927.66
2018-02-22T22:38:52.323Z,100931.86
2018-02-22T22:41:19.741Z,100933.94
2018-02-22T22:43:47.157Z,100935.25
2018-02-22T22:46:14.590Z,100935.36
2018-02-22T22:48:42.002Z,100933.27
2018-02-22T22:51:09.761Z,100928.47
2018-02-22T22:53:37.177Z,100934.48
2018-02-22T22:56:04.597Z,100925.50
2018-02-22T22:58:32.029Z,100924.45
2018-02-22T23:00:59.450Z,100922.01
2018-02-22T23:03:26.884Z,100921.91
2018-02-22T23:05:54.301Z,100927.07
2018-02-22T23:08:21.719Z,100921.73
2018-02-22T23:10:49.141Z,100922.20
2018-02-22T23:13:16.564Z,100920.79
2018-02-22T23:15:43.994Z,100914.08
2018-02-22T23:18:11.414Z,100917.48
2018-02-22T23:20:38.837Z,100909.45
2018-02-22T23:23:06.257Z,100912.67
2018-02-22T23:25:33.678Z,100907.69
2018-02-22T23:28:01.115Z,100907.02
2018-02-22T23:30:28.533Z,100902.11
2018-02-22T23:32:55.954Z,100896.64
2018-02-22T23:35:23.392Z,100895.92
2018-02-22T23:37:50.809Z,100898.27
2018-02-22T23:43:18.328Z,100897.52
2018-02-22T23:45:45.755Z,100889.32
2018-02-22T23:48:13.178Z,100892.43
2018-02-22T23:50:40.591Z,100897.59
2018-02-22T23:53:08.015Z,100900.10
2018-02-22T23:55:35.437Z,100902.30
2018-02-22T23:58:02.859Z,100897.56
